createdAt,value
2019-02-07T00:02:05.069Z,19.80
2019-02-07T00:04:34.282Z,19.90
2019-02-07T00:07:03.494Z,19.80
2019-02-07T00:09:32.945Z,19.80
2019-02-07T00:12:02.149Z,19.80
2019-02-07T00:14:39.449Z,19.80
2019-02-07T00:17:02.189Z,19.80
2019-02-07T00:19:31.418Z,19.80
2019-02-07T00:22:00.650Z,19.80
2019-02-07T00:24:30.031Z,19.80
2019-02-07T00:26:59.547Z,19.80
2019-02-07T00:29:28.740Z,19.80
2019-02-07T00:31:57.934Z,19.80
2019-02-07T00:34:27.169Z,19.80
2019-02-07T00:36:56.365Z,19.80
2019-02-07T00:39:25.533Z,19.80
2019-02-07T00:41:54.760Z,19.70
2019-02-07T00:44:23.922Z,19.70
2019-02-07T00:46:53.115Z,19.70
2019-02-07T00:49:22.316Z,19.70
2019-02-07T00:51:51.536Z,19.70
2019-02-07T00:54:20.778Z,19.80
2019-02-07T00:56:50.006Z,19.70
2019-02-07T00:59:19.162Z,19.80
2019-02-07T01:01:48.358Z,19.70
2019-02-07T01:04:17.531Z,19.70
2019-02-07T01:06:47.001Z,19.70
2019-02-07T01:09:16.178Z,19.70
2019-02-07T01:11:45.393Z,19.70
2019-02-07T01:14:14.949Z,19.70
2019-02-07T01:16:44.450Z,19.80
2019-02-07T01:19:13.713Z,19.70
2019-02-07T01:21:42.925Z,19.70
2019-02-07T01:24:12.126Z,19.80
2019-02-07T01:26:41.303Z,19.80
2019-02-07T01:29:10.513Z,19.80
2019-02-07T01:31:39.699Z,19.80
2019-02-07T01:34:08.873Z,19.80
2019-02-07T01:36:38.071Z,19.70
2019-02-07T01:39:08.945Z,19.80
2019-02-07T01:41:38.160Z,19.70
2019-02-07T01:44:07.360Z,19.80
2019-02-07T01:46:36.834Z,19.80
2019-02-07T01:49:06.337Z,19.70
2019-02-07T01:51:35.557Z,19.80
2019-02-07T01:54:04.804Z,19.70
2019-02-07T01:56:34.007Z,19.80
2019-02-07T01:59:03.193Z,19.70
2019-02-07T02:01:32.399Z,19.70
2019-02-07T02:04:01.604Z,19.70
2019-02-07T02:06:30.798Z,19.80
2019-02-07T02:08:59.978Z,19.80
2019-02-07T02:11:29.209Z,19.70
2019-02-07T02:13:58.507Z,19.70
2019-02-07T02:16:27.775Z,19.70
2019-02-07T02:18:56.891Z,19.70
2019-02-07T02:21:26.099Z,19.80
2019-02-07T02:23:55.293Z,19.70
2019-02-07T02:26:24.472Z,19.70
2019-02-07T02:28:53.698Z,19.70
2019-02-07T02:31:22.925Z,19.70
2019-02-07T02:33:52.114Z,19.70
2019-02-07T02:36:21.274Z,19.70
2019-02-07T02:38:51.003Z,19.70
2019-02-07T02:41:20.208Z,19.70
2019-02-07T02:43:49.361Z,19.70
2019-02-07T02:46:18.574Z,19.70
2019-02-07T02:48:47.817Z,19.70
2019-02-07T02:51:17.070Z,19.80
2019-02-07T02:53:46.859Z,19.70
2019-02-07T02:56:16.038Z,19.70
2019-02-07T02:58:45.248Z,19.70
2019-02-07T03:01:38.781Z,19.70
2019-02-07T03:04:33.563Z,19.70
2019-02-07T03:07:19.197Z,19.70
2019-02-07T03:10:16.358Z,19.70
2019-02-07T03:12:57.616Z,19.70
2019-02-07T03:15:49.599Z,19.70
2019-02-07T03:18:39.277Z,19.80
2019-02-07T03:21:46.146Z,19.70
2019-02-07T03:24:32.874Z,19.70
2019-02-07T03:27:27.309Z,19.70
2019-02-07T03:30:20.323Z,19.70
2019-02-07T03:33:08.814Z,19.70
2019-02-07T03:35:55.701Z,19.70
2019-02-07T03:38:49.900Z,19.70
2019-02-07T03:41:50.078Z,19.70
2019-02-07T03:44:44.197Z,19.70
2019-02-07T03:47:26.766Z,19.70
2019-02-07T03:50:13.772Z,19.70
2019-02-07T03:53:14.912Z,19.70
2019-02-07T03:56:12.730Z,19.70
2019-02-07T03:58:50.822Z,19.70
2019-02-07T04:01:37.730Z,19.70
2019-02-07T04:04:29.083Z,19.70
2019-02-07T04:07:17.230Z,19.70
2019-02-07T04:10:05.391Z,19.70
2019-02-07T04:12:59.595Z,19.70
2019-02-07T04:15:50.537Z,19.70
2019-02-07T04:18:37.272Z,19.70
2019-02-07T04:21:28.462Z,19.70
2019-02-07T04:24:31.815Z,19.70
2019-02-07T04:27:27.230Z,19.70
2019-02-07T04:30:33.450Z,19.70
2019-02-07T04:33:21.602Z,19.60
2019-02-07T04:36:11.375Z,19.60
2019-02-07T04:38:57.951Z,19.60
2019-02-07T04:41:52.135Z,19.60
2019-02-07T04:44:38.716Z,19.60
2019-02-07T04:47:28.283Z,19.60
2019-02-07T04:50:31.458Z,19.60
2019-02-07T04:53:12.993Z,19.60
2019-02-07T04:56:07.300Z,19.60
2019-02-07T04:58:54.267Z,19.60
2019-02-07T05:01:32.994Z,19.50
2019-02-07T05:04:23.997Z,19.60
2019-02-07T05:07:15.498Z,19.60
2019-02-07T05:10:15.900Z,19.50
2019-02-07T05:13:04.034Z,19.50
2019-02-07T05:15:58.821Z,19.60
2019-02-07T05:18:45.603Z,19.60
2019-02-07T05:21:42.828Z,19.60
2019-02-07T05:24:23.640Z,19.60
2019-02-07T05:27:10.398Z,19.60
2019-02-07T05:29:46.602Z,19.60
2019-02-07T05:32:43.902Z,19.60
2019-02-07T05:35:30.857Z,19.70
2019-02-07T05:38:18.809Z,19.70
2019-02-07T05:41:05.818Z,19.70
2019-02-07T05:44:02.343Z,19.70
2019-02-07T05:46:51.052Z,19.70
2019-02-07T05:49:37.833Z,19.80
2019-02-07T05:52:24.580Z,19.70
2019-02-07T05:55:15.893Z,19.80
2019-02-07T05:58:02.511Z,19.80
2019-02-07T06:00:49.568Z,19.90
2019-02-07T06:03:28.634Z,19.90
2019-02-07T06:06:31.920Z,19.80
2019-02-07T06:09:12.583Z,19.80
2019-02-07T06:12:01.680Z,19.80
2019-02-07T06:14:47.435Z,19.80
2019-02-07T06:17:50.938Z,19.70
2019-02-07T06:20:39.051Z,19.70
2019-02-07T06:23:36.481Z,19.70
2019-02-07T06:26:20.770Z,19.70
2019-02-07T06:29:24.045Z,19.60
2019-02-07T06:32:10.090Z,19.60
2019-02-07T06:34:57.060Z,19.50
2019-02-07T06:37:48.244Z,19.50
2019-02-07T06:40:39.218Z,19.60
2019-02-07T06:43:30.423Z,19.50
2019-02-07T06:46:24.701Z,19.50
2019-02-07T06:49:24.897Z,19.50
2019-02-07T06:52:05.929Z,19.50
2019-02-07T06:54:54.135Z,19.50
2019-02-07T06:57:45.034Z,19.50
2019-02-07T07:00:30.656Z,19.50
2019-02-07T07:03:22.575Z,19.60
2019-02-07T07:06:28.970Z,19.60
2019-02-07T07:09:26.240Z,19.60
2019-02-07T07:12:13.503Z,19.60
2019-02-07T07:15:00.275Z,19.70
2019-02-07T07:17:46.442Z,19.80
2019-02-07T07:20:33.569Z,19.80
2019-02-07T07:23:27.960Z,19.90
2019-02-07T07:26:14.905Z,20.00
2019-02-07T07:29:18.193Z,20.00
2019-02-07T07:32:09.267Z,20.00
2019-02-07T07:34:55.934Z,20.00
2019-02-07T07:37:49.264Z,20.00
2019-02-07T07:40:52.461Z,20.00
2019-02-07T07:43:42.181Z,20.00
2019-02-07T07:46:30.576Z,19.90
2019-02-07T07:49:27.690Z,19.90
2019-02-07T07:52:16.135Z,19.90
2019-02-07T07:55:02.877Z,19.80
2019-02-07T07:57:54.054Z,19.80
2019-02-07T08:00:41.047Z,19.80
2019-02-07T08:03:32.351Z,19.80
2019-02-07T08:06:09.918Z,19.80
2019-02-07T08:08:58.080Z,19.80
2019-02-07T08:11:49.292Z,19.70
2019-02-07T08:14:44.890Z,19.70
2019-02-07T08:17:47.526Z,19.70
2019-02-07T08:20:31.719Z,19.70
2019-02-07T08:23:09.763Z,19.60
2019-02-07T08:25:56.625Z,19.60
2019-02-07T08:28:53.977Z,19.60
2019-02-07T08:31:49.589Z,19.60
2019-02-07T08:34:40.489Z,19.60
2019-02-07T08:37:27.538Z,19.60
2019-02-07T08:40:27.529Z,19.70
2019-02-07T08:43:19.202Z,19.70
2019-02-07T08:46:21.752Z,19.70
2019-02-07T08:49:15.956Z,19.80
2019-02-07T08:52:06.115Z,19.80
2019-02-07T08:54:54.292Z,19.80
2019-02-07T08:57:45.435Z,19.90
2019-02-07T09:00:35.235Z,19.90
2019-02-07T09:03:17.279Z,19.90
2019-02-07T09:06:04.231Z,19.90
2019-02-07T09:09:10.471Z,19.90
2019-02-07T09:11:52.306Z,19.80
2019-02-07T09:14:46.469Z,19.80
2019-02-07T09:17:30.000Z,19.80
2019-02-07T09:20:17.367Z,19.80
2019-02-07T09:23:12.408Z,19.80
2019-02-07T09:25:53.606Z,19.80
2019-02-07T09:28:53.586Z,19.70
2019-02-07T09:31:40.361Z,19.70
2019-02-07T09:34:38.392Z,19.70
2019-02-07T09:37:29.660Z,19.70
2019-02-07T09:40:20.427Z,19.70
2019-02-07T09:42:58.355Z,19.70
2019-02-07T09:45:43.861Z,19.70
2019-02-07T09:48:34.802Z,19.70
2019-02-07T09:51:25.740Z,19.60
2019-02-07T09:54:19.924Z,19.60
2019-02-07T09:57:02.422Z,19.60
2019-02-07T09:59:48.489Z,19.60
2019-02-07T10:02:34.065Z,19.60
2019-02-07T10:05:28.063Z,19.60
2019-02-07T10:08:14.610Z,19.60
2019-02-07T10:11:05.719Z,19.60
2019-02-07T10:13:53.073Z,19.60
2019-02-07T10:16:41.173Z,19.60
2019-02-07T10:19:22.739Z,19.60
2019-02-07T10:22:09.730Z,19.70
2019-02-07T10:24:56.707Z,19.70
2019-02-07T10:27:36.717Z,19.70
2019-02-07T10:30:33.642Z,19.70
2019-02-07T10:33:27.843Z,19.60
2019-02-07T10:36:14.506Z,19.60
2019-02-07T10:39:01.512Z,19.60
2019-02-07T10:42:01.571Z,19.60
2019-02-07T10:44:49.703Z,19.60
2019-02-07T10:47:32.263Z,19.60
2019-02-07T10:50:27.134Z,19.60
2019-02-07T10:53:22.615Z,19.60
2019-02-07T10:56:16.856Z,19.60
2019-02-07T10:59:04.986Z,19.60
2019-02-07T11:01:56.143Z,19.60
2019-02-07T11:04:43.188Z,19.60
2019-02-07T11:07:30.565Z,19.60
2019-02-07T11:10:27.914Z,19.60
2019-02-07T11:13:19.194Z,19.60
2019-02-07T11:16:07.366Z,19.60
2019-02-07T11:19:20.645Z,19.60
2019-02-07T11:22:08.617Z,19.60
2019-02-07T11:24:59.585Z,19.60
2019-02-07T11:27:54.062Z,19.60
2019-02-07T11:30:41.976Z,19.60
2019-02-07T11:33:33.428Z,19.60
2019-02-07T11:36:20.375Z,19.60
2019-02-07T11:39:17.891Z,19.60
2019-02-07T11:42:06.107Z,19.60
2019-02-07T11:45:12.378Z,19.70
2019-02-07T11:48:00.587Z,19.70
2019-02-07T11:50:57.988Z,19.70
2019-02-07T11:53:46.174Z,19.70
2019-02-07T11:56:33.269Z,19.70
2019-02-07T11:59:29.625Z,19.80
2019-02-07T12:02:25.082Z,19.80
2019-02-07T12:05:21.585Z,19.80
2019-02-07T12:08:08.910Z,19.80
2019-02-07T12:11:05.979Z,19.80
2019-02-07T12:13:56.953Z,19.80
2019-02-07T12:16:57.358Z,19.80
2019-02-07T12:19:51.947Z,19.80
2019-02-07T12:22:39.023Z,19.80
2019-02-07T12:25:38.082Z,19.70
2019-02-07T12:28:19.017Z,19.70
2019-02-07T12:31:05.961Z,19.70
2019-02-07T12:33:44.525Z,19.70
2019-02-07T12:36:24.597Z,19.70
2019-02-07T12:39:13.232Z,19.70
2019-02-07T12:42:00.278Z,19.70
2019-02-07T12:45:00.740Z,19.70
2019-02-07T12:47:51.773Z,19.60
2019-02-07T12:50:34.952Z,19.60
2019-02-07T12:53:27.381Z,19.60
2019-02-07T12:56:14.141Z,19.60
2019-02-07T12:59:11.329Z,19.60
2019-02-07T13:01:58.027Z,19.60
2019-02-07T13:04:44.974Z,19.70
2019-02-07T13:07:31.615Z,19.70
2019-02-07T13:10:18.416Z,19.80
2019-02-07T13:13:05.247Z,19.80
2019-02-07T13:16:12.227Z,19.80
2019-02-07T13:19:00.402Z,19.80
2019-02-07T13:21:54.672Z,19.80
2019-02-07T13:24:36.297Z,19.80
2019-02-07T13:27:17.701Z,19.80
2019-02-07T13:30:11.575Z,19.80
2019-02-07T13:33:12.300Z,19.80
2019-02-07T13:36:00.792Z,19.80
2019-02-07T13:38:49.348Z,19.70
2019-02-07T13:41:40.245Z,19.70
2019-02-07T13:44:40.631Z,19.70
2019-02-07T13:47:33.554Z,19.70
2019-02-07T13:50:33.939Z,19.70
2019-02-07T13:53:22.106Z,19.60
2019-02-07T13:56:08.997Z,19.60
2019-02-07T13:58:56.905Z,19.60
2019-02-07T14:02:02.968Z,19.70
2019-02-07T14:04:48.147Z,19.60
2019-02-07T14:07:34.890Z,19.60
2019-02-07T14:10:26.740Z,19.70
2019-02-07T14:13:11.219Z,19.70
2019-02-07T14:15:58.310Z,19.70
2019-02-07T14:18:35.976Z,19.70
2019-02-07T14:21:22.993Z,19.70
2019-02-07T14:24:10.177Z,19.70
2019-02-07T14:27:02.369Z,19.70
2019-02-07T14:30:02.738Z,19.80
2019-02-07T14:32:48.305Z,19.70
2019-02-07T14:35:35.269Z,19.70
2019-02-07T14:38:22.346Z,19.70
2019-02-07T14:41:09.924Z,19.70
2019-02-07T14:44:01.633Z,19.70
2019-02-07T14:46:47.987Z,19.70
2019-02-07T14:49:17.303Z,19.70
2019-02-07T14:51:46.516Z,19.70
2019-02-07T14:54:16.122Z,19.70
2019-02-07T14:56:45.310Z,19.70
2019-02-07T14:59:14.577Z,19.70
2019-02-07T15:01:43.745Z,19.70
2019-02-07T15:04:12.986Z,19.70
2019-02-07T15:06:42.257Z,19.70
2019-02-07T15:09:16.806Z,19.70
2019-02-07T15:11:46.135Z,19.70
2019-02-07T15:14:15.269Z,19.70
2019-02-07T15:16:44.493Z,19.70
2019-02-07T15:19:13.718Z,19.70
2019-02-07T15:21:43.175Z,19.70
2019-02-07T15:24:12.361Z,19.70
2019-02-07T15:26:41.598Z,19.80
2019-02-07T15:29:10.763Z,19.70
2019-02-07T15:31:39.967Z,19.70
2019-02-07T15:34:09.893Z,19.70
2019-02-07T15:36:40.678Z,19.80
2019-02-07T15:39:12.040Z,19.70
2019-02-07T15:41:41.256Z,19.70
2019-02-07T15:44:10.530Z,19.70
2019-02-07T15:46:39.759Z,19.70
2019-02-07T15:49:09.201Z,19.70
2019-02-07T15:51:38.442Z,19.70
2019-02-07T15:54:07.626Z,19.60
2019-02-07T15:56:36.843Z,19.60
2019-02-07T15:59:17.536Z,19.60
2019-02-07T16:02:08.704Z,19.60
2019-02-07T16:04:40.470Z,19.60
2019-02-07T16:07:09.698Z,19.60
2019-02-07T16:09:38.938Z,19.60
2019-02-07T16:12:08.155Z,19.50
2019-02-07T16:14:37.374Z,19.50
2019-02-07T16:17:06.542Z,19.60
2019-02-07T16:19:35.763Z,19.70
2019-02-07T16:22:05.062Z,19.70
2019-02-07T16:24:34.324Z,19.80
2019-02-07T16:27:03.549Z,19.80
2019-02-07T16:29:32.750Z,20.00
2019-02-07T16:32:02.049Z,20.00
2019-02-07T16:34:31.271Z,20.10
2019-02-07T16:37:00.463Z,20.10
2019-02-07T16:39:29.680Z,20.20
2019-02-07T16:42:05.831Z,20.20
2019-02-07T16:44:29.781Z,20.20
2019-02-07T16:46:59.026Z,20.10
2019-02-07T16:49:28.213Z,20.10
2019-02-07T16:51:57.450Z,20.00
2019-02-07T16:54:26.658Z,20.00
2019-02-07T16:56:55.846Z,19.90
2019-02-07T16:59:25.050Z,19.90
2019-02-07T17:01:54.667Z,19.90
2019-02-07T17:04:23.857Z,19.90
2019-02-07T17:06:53.125Z,19.80
2019-02-07T17:09:30.601Z,19.80
2019-02-07T17:12:01.016Z,19.70
2019-02-07T17:14:30.740Z,19.70
2019-02-07T17:16:59.885Z,19.60
2019-02-07T17:19:29.006Z,19.60
2019-02-07T17:21:58.437Z,19.60
2019-02-07T17:24:27.633Z,19.60
2019-02-07T17:26:57.238Z,19.60
2019-02-07T17:29:26.509Z,19.50
2019-02-07T17:31:55.729Z,19.50
2019-02-07T17:34:24.922Z,19.50
2019-02-07T17:36:54.102Z,19.50
2019-02-07T17:39:23.292Z,19.50
2019-02-07T17:41:52.813Z,19.60
2019-02-07T17:44:22.654Z,19.60
2019-02-07T17:46:51.844Z,19.70
2019-02-07T17:49:21.032Z,19.70
2019-02-07T17:51:50.237Z,19.80
2019-02-07T17:54:19.478Z,19.80
2019-02-07T17:56:48.951Z,19.80
2019-02-07T17:59:18.858Z,19.80
2019-02-07T18:01:48.033Z,19.80
2019-02-07T18:04:17.282Z,19.80
2019-02-07T18:06:46.513Z,19.80
2019-02-07T18:09:15.698Z,19.80
2019-02-07T18:11:44.883Z,19.80
2019-02-07T18:14:14.297Z,19.70
2019-02-07T18:16:43.502Z,19.70
2019-02-07T18:19:12.736Z,19.70
2019-02-07T18:21:41.948Z,19.70
2019-02-07T18:24:11.624Z,19.70
2019-02-07T18:26:40.808Z,19.70
2019-02-07T18:29:10.289Z,19.60
2019-02-07T18:31:39.497Z,19.70
2019-02-07T18:34:08.738Z,19.70
2019-02-07T18:36:38.222Z,19.70
2019-02-07T18:39:10.089Z,19.70
2019-02-07T18:41:39.342Z,19.70
2019-02-07T18:44:09.401Z,19.70
2019-02-07T18:46:39.159Z,19.70
2019-02-07T18:49:08.425Z,19.70
2019-02-07T18:51:45.108Z,19.70
2019-02-07T18:54:08.672Z,19.70
2019-02-07T18:56:38.219Z,19.70
2019-02-07T18:59:09.826Z,19.70
2019-02-07T19:01:39.204Z,19.60
2019-02-07T19:04:10.736Z,19.60
2019-02-07T19:06:40.226Z,19.70
2019-02-07T19:09:09.955Z,19.70
2019-02-07T19:11:45.029Z,19.70
2019-02-07T19:14:14.734Z,19.70
2019-02-07T19:16:44.202Z,19.70
2019-02-07T19:19:13.491Z,19.80
2019-02-07T19:21:42.708Z,19.80
2019-02-07T19:24:11.960Z,19.80
2019-02-07T19:26:41.184Z,19.90
2019-02-07T19:29:10.462Z,19.90
2019-02-07T19:31:39.718Z,19.90
2019-02-07T19:34:09.001Z,20.00
2019-02-07T19:36:40.035Z,20.00
2019-02-07T19:39:10.099Z,20.00
2019-02-07T19:41:39.658Z,20.00
2019-02-07T19:44:09.266Z,20.00
2019-02-07T19:46:38.546Z,19.90
2019-02-07T19:49:07.794Z,19.80
2019-02-07T19:51:36.978Z,19.80
2019-02-07T19:54:06.209Z,19.70
2019-02-07T19:56:35.700Z,19.70
2019-02-07T19:59:05.203Z,19.70
2019-02-07T20:01:34.454Z,19.70
2019-02-07T20:04:03.723Z,19.70
2019-02-07T20:06:33.154Z,19.60
2019-02-07T20:09:02.441Z,19.60
2019-02-07T20:11:31.646Z,19.60
2019-02-07T20:14:01.295Z,19.60
2019-02-07T20:16:30.466Z,19.60
2019-02-07T20:18:59.693Z,19.60
2019-02-07T20:21:28.949Z,19.60
2019-02-07T20:23:58.179Z,19.60
2019-02-07T20:26:27.442Z,19.60
2019-02-07T20:28:56.667Z,19.60
2019-02-07T20:31:26.303Z,19.60
2019-02-07T20:33:55.517Z,19.70
2019-02-07T20:36:24.689Z,19.70
2019-02-07T20:38:53.927Z,19.70
2019-02-07T20:41:23.171Z,19.70
2019-02-07T20:43:52.430Z,19.80
2019-02-07T20:46:22.769Z,19.80
2019-02-07T20:48:52.269Z,19.80
2019-02-07T20:51:24.170Z,19.80
2019-02-07T20:53:53.474Z,19.80
2019-02-07T20:56:22.959Z,19.80
2019-02-07T20:58:52.150Z,19.80
2019-02-07T21:01:21.560Z,19.80
2019-02-07T21:03:51.314Z,19.80
2019-02-07T21:06:20.555Z,19.80
2019-02-07T21:08:49.769Z,19.80
2019-02-07T21:11:19.293Z,19.80
2019-02-07T21:13:48.513Z,19.80
2019-02-07T21:16:18.038Z,19.70
2019-02-07T21:18:47.237Z,19.70
2019-02-07T21:21:16.707Z,19.70
2019-02-07T21:23:46.074Z,19.70
2019-02-07T21:26:15.292Z,19.70
2019-02-07T21:28:44.533Z,19.70
2019-02-07T21:31:13.794Z,19.70
2019-02-07T21:33:43.013Z,19.70
2019-02-07T21:36:12.302Z,19.70
2019-02-07T21:38:41.566Z,19.70
2019-02-07T21:41:10.786Z,19.70
2019-02-07T21:43:40.037Z,19.70
2019-02-07T21:46:09.269Z,19.70
2019-02-07T21:48:38.519Z,19.70
2019-02-07T21:51:09.885Z,19.70
2019-02-07T21:53:39.448Z,19.70
2019-02-07T21:56:12.270Z,19.70
2019-02-07T21:58:41.780Z,19.70
2019-02-07T22:01:11.053Z,19.70
2019-02-07T22:03:40.678Z,19.70
2019-02-07T22:06:09.920Z,19.70
2019-02-07T22:08:39.710Z,19.70
2019-02-07T22:11:09.462Z,19.70
2019-02-07T22:13:39.198Z,19.70
2019-02-07T22:16:08.482Z,19.70
2019-02-07T22:18:37.723Z,19.70
2019-02-07T22:21:06.965Z,19.70
2019-02-07T22:23:36.342Z,19.70
2019-02-07T22:26:09.827Z,19.70
2019-02-07T22:28:38.978Z,19.70
2019-02-07T22:31:08.190Z,19.70
2019-02-07T22:33:37.398Z,19.70
2019-02-07T22:36:06.606Z,19.70
2019-02-07T22:38:35.817Z,19.70
2019-02-07T22:41:05.025Z,19.70
2019-02-07T22:43:34.405Z,19.80
2019-02-07T22:46:03.621Z,19.70
2019-02-07T22:48:33.153Z,19.70
2019-02-07T22:51:02.325Z,19.70
2019-02-07T22:53:32.151Z,19.70
2019-02-07T22:56:01.328Z,19.70
2019-02-07T22:58:30.569Z,19.70
2019-02-07T23:01:44.780Z,19.70
2019-02-07T23:04:14.322Z,19.70
2019-02-07T23:06:43.532Z,19.60
2019-02-07T23:09:14.762Z,19.60
2019-02-07T23:11:43.930Z,19.60
2019-02-07T23:14:13.244Z,19.60
2019-02-07T23:16:42.431Z,19.60
2019-02-07T23:19:11.630Z,19.60
2019-02-07T23:21:40.822Z,19.60
2019-02-07T23:24:10.005Z,19.60
2019-02-07T23:26:39.273Z,19.60
2019-02-07T23:29:08.636Z,19.60
2019-02-07T23:31:37.823Z,19.60
2019-02-07T23:34:07.190Z,19.50
2019-02-07T23:36:36.398Z,19.50
2019-02-07T23:39:08.675Z,19.60
2019-02-07T23:41:37.923Z,19.60
2019-02-07T23:44:07.899Z,19.60
2019-02-07T23:46:37.130Z,19.60
2019-02-07T23:49:06.346Z,19.60
2019-02-07T23:51:35.541Z,19.60
2019-02-07T23:54:04.759Z,19.60
2019-02-07T23:56:34.243Z,19.60
2019-02-07T23:59:03.454Z,19.60
